KCRW Airport Diagram

We have created a template for each of the higher traffic airports in the vZID airspace. They include KCMH, KCRW, KCVG, KDAY, KIND, KLEX and KSDF. You wil find usefull information including the airport diagram, weather, and specific airport procedures.

KCRW Weather

[Source: ADDS]
METAR
KCRW 191354Z 25003KT 5SM BR OVC006 09/08 A3006 RMK AO2 SLP180 T00890078 =
TAF
KCRW 191402Z 1914/2012 25004KT 5SM BR OVC006 FM191500 26004KT P6SM BKN015 FM192200 27004KT P6SM SCT020 FM200900 00000KT 2SM BR SCT020 =
JSN Epic template designed by JoomlaShine.com